This is the latest recevied weather packets stored in our database for station/object WC4PEM-14. If no packets are shown the sender has not sent any weather packets the latest 10 day(s).
| Time | Temp. | Humidity | Pressure | Rain* | Wind** | Luminosity | Snow |
|---|---|---|---|---|---|---|---|
| 1778198579 | 30° C | 38% | 1012.7 hPa | 0 mm | - | - | - |
| 1778198279 | 30° C | 37% | 1012.7 hPa | 0 mm | - | - | - |
| 1778197979 | 30° C | 36% | 1012.8 hPa | 0 mm | - | - | - |
| 1778197808 | 30.56° C | 36% | 1012.7 hPa | 0 mm | - | - | - |
| 1778197679 | 30.56° C | 36% | 1012.7 hPa | 0 mm | - | - | - |
| 1778197494 | 31.11° C | 33% | 1012.7 hPa | 0 mm | - | - | - |
| 1778197493 | 31.67° C | 32% | 1012.6 hPa | 0 mm | - | - | - |
| 1778197476 | 30.56° C | 35% | 1012.6 hPa | 0 mm | - | - | - |
| 1778197379 | 30.56° C | 35% | 1012.6 hPa | 0 mm | - | - | - |
| 1778197184 | 31.11° C | 33% | 1012.7 hPa | 0 mm | - | - | - |
| 1778197181 | 31.11° C | 34% | 1012.7 hPa | 0 mm | - | - | - |
| 1778197079 | 31.11° C | 34% | 1012.7 hPa | 0 mm | - | - | - |
| 1778196910 | 31.11° C | 33% | 1012.7 hPa | 0 mm | - | - | - |
| 1778196779 | 31.11° C | 33% | 1012.7 hPa | 0 mm | - | - | - |
| 1778196596 | 31.67° C | 32% | 1012.6 hPa | 0 mm | - | - | - |
| 1778196479 | 31.67° C | 32% | 1012.6 hPa | 0 mm | - | - | - |
| 1778196342 | 31.67° C | 33% | 1012.5 hPa | 0 mm | - | - | - |
| 1778196179 | 31.67° C | 33% | 1012.5 hPa | 0 mm | - | - | - |
| 1778195999 | 32.22° C | 32% | 1012.6 hPa | 0 mm | - | - | - |
| 1778195879 | 32.22° C | 32% | 1012.6 hPa | 0 mm | - | - | - |
| 1778195694 | 32.22° C | 32% | 1012.5 hPa | 0 mm | - | - | - |
| 1778195653 | 32.22° C | 32% | 1012.5 hPa | 0 mm | - | - | - |
| 1778195579 | 32.22° C | 32% | 1012.5 hPa | 0 mm | - | - | - |
| 1778195371 | 32.22° C | 31% | 1012.5 hPa | 0 mm | - | - | - |
| 1778195279 | 32.22° C | 31% | 1012.5 hPa | 0 mm | - | - | - |
* Rain latest hour (hover to see other rain measurements)
** Current wind speed in m/s (hover to see current wind gust speed)